sensor_id;sensor_type;location;lat;lon;timestamp;P1;durP1;ratioP1;P2;durP2;ratioP2
23498;SDS011;11926;48.120;11.562;2022-08-06T00:01:16;5.22;;;2.88;;
23498;SDS011;11926;48.120;11.562;2022-08-06T00:04:04;7.40;;;2.45;;
23498;SDS011;11926;48.120;11.562;2022-08-06T00:06:51;8.50;;;3.03;;
23498;SDS011;11926;48.120;11.562;2022-08-06T00:09:39;8.88;;;2.67;;
23498;SDS011;11926;48.120;11.562;2022-08-06T00:12:41;4.93;;;2.55;;
23498;SDS011;11926;48.120;11.562;2022-08-06T00:15:33;4.25;;;2.30;;
23498;SDS011;11926;48.120;11.562;2022-08-06T00:18:43;6.85;;;2.80;;
23498;SDS011;11926;48.120;11.562;2022-08-06T00:21:31;5.43;;;2.88;;
23498;SDS011;11926;48.120;11.562;2022-08-06T00:24:26;7.00;;;3.20;;
23498;SDS011;11926;48.120;11.562;2022-08-06T00:27:14;5.80;;;2.97;;
23498;SDS011;11926;48.120;11.562;2022-08-06T00:30:13;6.35;;;3.28;;
23498;SDS011;11926;48.120;11.562;2022-08-06T00:33:06;6.53;;;3.08;;
23498;SDS011;11926;48.120;11.562;2022-08-06T00:35:54;8.23;;;3.50;;
23498;SDS011;11926;48.120;11.562;2022-08-06T00:38:45;7.80;;;3.60;;
23498;SDS011;11926;48.120;11.562;2022-08-06T00:41:32;6.50;;;3.58;;
23498;SDS011;11926;48.120;11.562;2022-08-06T00:44:31;7.07;;;4.10;;
23498;SDS011;11926;48.120;11.562;2022-08-06T00:47:18;10.25;;;3.53;;
23498;SDS011;11926;48.120;11.562;2022-08-06T00:50:25;5.63;;;3.22;;
23498;SDS011;11926;48.120;11.562;2022-08-06T00:53:12;7.85;;;3.33;;
23498;SDS011;11926;48.120;11.562;2022-08-06T00:56:02;5.90;;;3.53;;
23498;SDS011;11926;48.120;11.562;2022-08-06T00:58:53;5.90;;;3.47;;
23498;SDS011;11926;48.120;11.562;2022-08-06T01:01:47;6.35;;;3.50;;
23498;SDS011;11926;48.120;11.562;2022-08-06T01:04:36;6.35;;;3.67;;
23498;SDS011;11926;48.120;11.562;2022-08-06T01:07:23;4.70;;;2.85;;
23498;SDS011;11926;48.120;11.562;2022-08-06T01:10:30;4.82;;;3.35;;
23498;SDS011;11926;48.120;11.562;2022-08-06T01:13:28;6.20;;;3.10;;
23498;SDS011;11926;48.120;11.562;2022-08-06T01:16:37;3.75;;;2.40;;
23498;SDS011;11926;48.120;11.562;2022-08-06T01:19:37;3.65;;;2.35;;
23498;SDS011;11926;48.120;11.562;2022-08-06T01:23:00;3.78;;;2.53;;
23498;SDS011;11926;48.120;11.562;2022-08-06T01:26:01;3.38;;;2.22;;
23498;SDS011;11926;48.120;11.562;2022-08-06T01:29:06;3.50;;;2.40;;
23498;SDS011;11926;48.120;11.562;2022-08-06T01:32:00;10.15;;;2.78;;
23498;SDS011;11926;48.120;11.562;2022-08-06T01:34:53;4.03;;;2.50;;
23498;SDS011;11926;48.120;11.562;2022-08-06T01:37:48;5.55;;;2.90;;
23498;SDS011;11926;48.120;11.562;2022-08-06T01:40:45;7.03;;;2.22;;
23498;SDS011;11926;48.120;11.562;2022-08-06T01:43:35;3.92;;;2.70;;
23498;SDS011;11926;48.120;11.562;2022-08-06T01:46:47;6.25;;;2.50;;
23498;SDS011;11926;48.120;11.562;2022-08-06T01:49:38;4.38;;;2.47;;
23498;SDS011;11926;48.120;11.562;2022-08-06T01:52:47;5.82;;;3.08;;
23498;SDS011;11926;48.120;11.562;2022-08-06T01:55:46;5.85;;;2.40;;
23498;SDS011;11926;48.120;11.562;2022-08-06T01:58:43;4.82;;;2.80;;
23498;SDS011;11926;48.120;11.562;2022-08-06T02:01:33;5.05;;;2.60;;
23498;SDS011;11926;48.120;11.562;2022-08-06T02:04:40;8.50;;;2.42;;
23498;SDS011;11926;48.120;11.562;2022-08-06T02:07:35;5.70;;;2.60;;
23498;SDS011;11926;48.120;11.562;2022-08-06T02:10:45;5.47;;;2.55;;
23498;SDS011;11926;48.120;11.562;2022-08-06T02:13:34;6.10;;;2.75;;
23498;SDS011;11926;48.120;11.562;2022-08-06T02:16:32;8.38;;;2.97;;
23498;SDS011;11926;48.120;11.562;2022-08-06T02:19:26;7.65;;;2.80;;
23498;SDS011;11926;48.120;11.562;2022-08-06T02:22:39;9.15;;;3.40;;
23498;SDS011;11926;48.120;11.562;2022-08-06T02:25:29;7.65;;;2.65;;
23498;SDS011;11926;48.120;11.562;2022-08-06T02:28:20;4.78;;;2.53;;
23498;SDS011;11926;48.120;11.562;2022-08-06T02:31:09;8.32;;;3.03;;
23498;SDS011;11926;48.120;11.562;2022-08-06T02:33:57;4.95;;;3.10;;
23498;SDS011;11926;48.120;11.562;2022-08-06T02:37:02;4.75;;;2.83;;
23498;SDS011;11926;48.120;11.562;2022-08-06T02:39:55;6.05;;;2.83;;
23498;SDS011;11926;48.120;11.562;2022-08-06T02:42:53;8.65;;;3.05;;
23498;SDS011;11926;48.120;11.562;2022-08-06T02:45:52;8.10;;;3.00;;
23498;SDS011;11926;48.120;11.562;2022-08-06T02:48:46;6.78;;;2.95;;
23498;SDS011;11926;48.120;11.562;2022-08-06T02:51:37;4.38;;;3.15;;
23498;SDS011;11926;48.120;11.562;2022-08-06T02:54:48;6.82;;;3.13;;
23498;SDS011;11926;48.120;11.562;2022-08-06T02:57:45;8.55;;;3.30;;
23498;SDS011;11926;48.120;11.562;2022-08-06T03:00:36;5.28;;;3.45;;
23498;SDS011;11926;48.120;11.562;2022-08-06T03:03:35;5.20;;;3.47;;
23498;SDS011;11926;48.120;11.562;2022-08-06T03:06:41;10.15;;;3.88;;
23498;SDS011;11926;48.120;11.562;2022-08-06T03:09:30;5.65;;;3.58;;
23498;SDS011;11926;48.120;11.562;2022-08-06T03:12:22;7.35;;;4.18;;
23498;SDS011;11926;48.120;11.562;2022-08-06T03:15:16;9.30;;;4.33;;
23498;SDS011;11926;48.120;11.562;2022-08-06T03:18:25;8.20;;;4.90;;
23498;SDS011;11926;48.120;11.562;2022-08-06T03:21:14;8.50;;;5.60;;
23498;SDS011;11926;48.120;11.562;2022-08-06T03:24:08;14.10;;;5.43;;
23498;SDS011;11926;48.120;11.562;2022-08-06T03:26:57;12.25;;;6.38;;
23498;SDS011;11926;48.120;11.562;2022-08-06T03:29:45;9.23;;;6.45;;
23498;SDS011;11926;48.120;11.562;2022-08-06T03:32:44;16.67;;;8.45;;
23498;SDS011;11926;48.120;11.562;2022-08-06T03:35:37;13.70;;;7.72;;
23498;SDS011;11926;48.120;11.562;2022-08-06T03:38:37;15.55;;;8.63;;
23498;SDS011;11926;48.120;11.562;2022-08-06T03:41:27;12.30;;;8.73;;
23498;SDS011;11926;48.120;11.562;2022-08-06T03:44:24;17.85;;;9.02;;
23498;SDS011;11926;48.120;11.562;2022-08-06T03:47:16;14.52;;;9.05;;
23498;SDS011;11926;48.120;11.562;2022-08-06T03:50:28;18.13;;;10.23;;
23498;SDS011;11926;48.120;11.562;2022-08-06T03:53:19;13.48;;;9.25;;
23498;SDS011;11926;48.120;11.562;2022-08-06T03:56:09;15.43;;;9.38;;
23498;SDS011;11926;48.120;11.562;2022-08-06T03:59:02;14.38;;;9.73;;
23498;SDS011;11926;48.120;11.562;2022-08-06T04:01:52;13.30;;;9.27;;
23498;SDS011;11926;48.120;11.562;2022-08-06T04:04:42;15.95;;;9.95;;
23498;SDS011;11926;48.120;11.562;2022-08-06T04:07:34;21.30;;;11.20;;
23498;SDS011;11926;48.120;11.562;2022-08-06T04:10:41;15.77;;;10.32;;
23498;SDS011;11926;48.120;11.562;2022-08-06T04:13:42;19.15;;;10.98;;
23498;SDS011;11926;48.120;11.562;2022-08-06T04:16:50;16.25;;;10.80;;
23498;SDS011;11926;48.120;11.562;2022-08-06T04:19:39;16.35;;;10.20;;
23498;SDS011;11926;48.120;11.562;2022-08-06T04:22:28;18.90;;;10.27;;
23498;SDS011;11926;48.120;11.562;2022-08-06T04:25:38;19.55;;;11.77;;
23498;SDS011;11926;48.120;11.562;2022-08-06T04:28:33;17.58;;;11.82;;
23498;SDS011;11926;48.120;11.562;2022-08-06T04:31:26;23.67;;;14.07;;
23498;SDS011;11926;48.120;11.562;2022-08-06T04:34:35;22.85;;;14.45;;
23498;SDS011;11926;48.120;11.562;2022-08-06T04:37:44;19.45;;;11.88;;
23498;SDS011;11926;48.120;11.562;2022-08-06T04:40:39;21.38;;;11.90;;
23498;SDS011;11926;48.120;11.562;2022-08-06T04:43:38;17.23;;;11.75;;
23498;SDS011;11926;48.120;11.562;2022-08-06T04:46:40;20.75;;;11.60;;
23498;SDS011;11926;48.120;11.562;2022-08-06T04:49:28;20.48;;;12.65;;
23498;SDS011;11926;48.120;11.562;2022-08-06T04:52:35;19.40;;;13.10;;
23498;SDS011;11926;48.120;11.562;2022-08-06T04:55:33;21.23;;;12.80;;
23498;SDS011;11926;48.120;11.562;2022-08-06T04:58:23;21.02;;;12.93;;
23498;SDS011;11926;48.120;11.562;2022-08-06T05:01:17;20.25;;;12.95;;
23498;SDS011;11926;48.120;11.562;2022-08-06T05:04:04;24.17;;;13.43;;
23498;SDS011;11926;48.120;11.562;2022-08-06T05:07:01;23.10;;;13.02;;
23498;SDS011;11926;48.120;11.562;2022-08-06T05:10:00;19.48;;;13.63;;
23498;SDS011;11926;48.120;11.562;2022-08-06T05:12:51;20.05;;;12.75;;
23498;SDS011;11926;48.120;11.562;2022-08-06T05:15:43;16.73;;;11.20;;
23498;SDS011;11926;48.120;11.562;2022-08-06T05:18:37;17.70;;;10.35;;
23498;SDS011;11926;48.120;11.562;2022-08-06T05:21:47;13.57;;;9.38;;
23498;SDS011;11926;48.120;11.562;2022-08-06T05:24:56;15.38;;;9.75;;
23498;SDS011;11926;48.120;11.562;2022-08-06T05:27:59;14.07;;;8.45;;
23498;SDS011;11926;48.120;11.562;2022-08-06T05:30:56;15.40;;;8.57;;
23498;SDS011;11926;48.120;11.562;2022-08-06T05:33:43;11.70;;;7.88;;
23498;SDS011;11926;48.120;11.562;2022-08-06T05:36:30;11.02;;;7.78;;
23498;SDS011;11926;48.120;11.562;2022-08-06T05:39:17;12.07;;;8.20;;
23498;SDS011;11926;48.120;11.562;2022-08-06T05:42:26;11.75;;;8.98;;
23498;SDS011;11926;48.120;11.562;2022-08-06T05:45:14;12.13;;;9.25;;
23498;SDS011;11926;48.120;11.562;2022-08-06T05:48:11;15.35;;;9.20;;
23498;SDS011;11926;48.120;11.562;2022-08-06T05:51:19;9.88;;;8.38;;
23498;SDS011;11926;48.120;11.562;2022-08-06T05:54:30;10.82;;;8.00;;
23498;SDS011;11926;48.120;11.562;2022-08-06T05:57:24;14.27;;;9.00;;
23498;SDS011;11926;48.120;11.562;2022-08-06T06:03:30;8.75;;;5.55;;
23498;SDS011;11926;48.120;11.562;2022-08-06T06:06:18;9.88;;;6.32;;
23498;SDS011;11926;48.120;11.562;2022-08-06T06:09:05;11.70;;;6.57;;
23498;SDS011;11926;48.120;11.562;2022-08-06T06:11:53;8.18;;;6.22;;
23498;SDS011;11926;48.120;11.562;2022-08-06T06:17:40;8.20;;;6.90;;
23498;SDS011;11926;48.120;11.562;2022-08-06T06:20:48;8.20;;;6.03;;
23498;SDS011;11926;48.120;11.562;2022-08-06T06:23:49;12.70;;;6.85;;
23498;SDS011;11926;48.120;11.562;2022-08-06T06:26:43;11.68;;;6.78;;
23498;SDS011;11926;48.120;11.562;2022-08-06T06:29:37;8.75;;;6.55;;
23498;SDS011;11926;48.120;11.562;2022-08-06T06:32:49;14.23;;;7.35;;
23498;SDS011;11926;48.120;11.562;2022-08-06T06:35:50;7.90;;;6.57;;
23498;SDS011;11926;48.120;11.562;2022-08-06T06:38:44;11.20;;;6.47;;
23498;SDS011;11926;48.120;11.562;2022-08-06T06:41:41;8.48;;;6.80;;
23498;SDS011;11926;48.120;11.562;2022-08-06T06:44:38;11.32;;;7.18;;
23498;SDS011;11926;48.120;11.562;2022-08-06T06:47:52;11.27;;;6.80;;
23498;SDS011;11926;48.120;11.562;2022-08-06T06:50:50;11.00;;;7.20;;
23498;SDS011;11926;48.120;11.562;2022-08-06T06:53:45;9.77;;;7.38;;
23498;SDS011;11926;48.120;11.562;2022-08-06T06:56:52;11.77;;;7.38;;
23498;SDS011;11926;48.120;11.562;2022-08-06T06:59:44;8.65;;;6.82;;
23498;SDS011;11926;48.120;11.562;2022-08-06T07:02:56;9.10;;;6.88;;
23498;SDS011;11926;48.120;11.562;2022-08-06T07:05:48;8.00;;;6.68;;
23498;SDS011;11926;48.120;11.562;2022-08-06T07:08:50;8.02;;;6.57;;
23498;SDS011;11926;48.120;11.562;2022-08-06T07:11:38;9.98;;;7.25;;
23498;SDS011;11926;48.120;11.562;2022-08-06T07:14:47;11.23;;;7.47;;
23498;SDS011;11926;48.120;11.562;2022-08-06T07:17:45;8.82;;;6.70;;
23498;SDS011;11926;48.120;11.562;2022-08-06T07:20:44;9.98;;;6.90;;
23498;SDS011;11926;48.120;11.562;2022-08-06T07:23:34;8.38;;;6.45;;
23498;SDS011;11926;48.120;11.562;2022-08-06T07:26:42;11.23;;;6.78;;
23498;SDS011;11926;48.120;11.562;2022-08-06T07:29:34;8.45;;;7.30;;
23498;SDS011;11926;48.120;11.562;2022-08-06T07:32:43;9.52;;;8.05;;
23498;SDS011;11926;48.120;11.562;2022-08-06T07:35:33;8.98;;;6.95;;
23498;SDS011;11926;48.120;11.562;2022-08-06T07:38:22;9.75;;;7.90;;
23498;SDS011;11926;48.120;11.562;2022-08-06T07:41:14;11.43;;;9.02;;
23498;SDS011;11926;48.120;11.562;2022-08-06T07:44:24;12.95;;;9.13;;
23498;SDS011;11926;48.120;11.562;2022-08-06T07:47:13;10.55;;;9.20;;
23498;SDS011;11926;48.120;11.562;2022-08-06T07:50:12;12.85;;;9.85;;
23498;SDS011;11926;48.120;11.562;2022-08-06T07:53:01;12.43;;;9.95;;
23498;SDS011;11926;48.120;11.562;2022-08-06T07:55:49;12.15;;;10.10;;
23498;SDS011;11926;48.120;11.562;2022-08-06T07:58:38;15.27;;;11.15;;
23498;SDS011;11926;48.120;11.562;2022-08-06T08:08:59;14.07;;;10.75;;
23498;SDS011;11926;48.120;11.562;2022-08-06T08:11:48;17.08;;;13.02;;
23498;SDS011;11926;48.120;11.562;2022-08-06T08:14:55;16.75;;;13.23;;
23498;SDS011;11926;48.120;11.562;2022-08-06T08:20:42;15.77;;;11.88;;
23498;SDS011;11926;48.120;11.562;2022-08-06T08:23:38;20.48;;;12.85;;
23498;SDS011;11926;48.120;11.562;2022-08-06T08:26:30;17.05;;;13.15;;
23498;SDS011;11926;48.120;11.562;2022-08-06T08:29:38;19.20;;;13.30;;
23498;SDS011;11926;48.120;11.562;2022-08-06T08:32:40;15.73;;;13.68;;
23498;SDS011;11926;48.120;11.562;2022-08-06T08:35:31;17.35;;;13.82;;
23498;SDS011;11926;48.120;11.562;2022-08-06T08:38:21;19.92;;;14.35;;
23498;SDS011;11926;48.120;11.562;2022-08-06T08:41:13;17.83;;;14.45;;
23498;SDS011;11926;48.120;11.562;2022-08-06T08:44:28;24.40;;;17.42;;
23498;SDS011;11926;48.120;11.562;2022-08-06T08:47:16;26.17;;;18.25;;
23498;SDS011;11926;48.120;11.562;2022-08-06T08:50:25;23.77;;;16.65;;
23498;SDS011;11926;48.120;11.562;2022-08-06T08:53:14;21.00;;;17.17;;
23498;SDS011;11926;48.120;11.562;2022-08-06T08:56:30;25.85;;;17.30;;
23498;SDS011;11926;48.120;11.562;2022-08-06T08:59:38;25.52;;;15.90;;
23498;SDS011;11926;48.120;11.562;2022-08-06T09:02:44;23.48;;;18.77;;
23498;SDS011;11926;48.120;11.562;2022-08-06T09:05:36;25.92;;;18.40;;
23498;SDS011;11926;48.120;11.562;2022-08-06T09:08:31;23.77;;;17.98;;
23498;SDS011;11926;48.120;11.562;2022-08-06T09:11:39;21.92;;;17.98;;
23498;SDS011;11926;48.120;11.562;2022-08-06T09:14:45;24.58;;;18.48;;
23498;SDS011;11926;48.120;11.562;2022-08-06T09:17:33;21.05;;;17.35;;
23498;SDS011;11926;48.120;11.562;2022-08-06T09:20:43;20.60;;;17.33;;
23498;SDS011;11926;48.120;11.562;2022-08-06T09:23:31;24.15;;;19.40;;
23498;SDS011;11926;48.120;11.562;2022-08-06T09:26:34;25.48;;;20.08;;
23498;SDS011;11926;48.120;11.562;2022-08-06T09:29:47;25.85;;;20.40;;
23498;SDS011;11926;48.120;11.562;2022-08-06T09:32:48;24.42;;;19.10;;
23498;SDS011;11926;48.120;11.562;2022-08-06T09:35:41;25.30;;;19.10;;
23498;SDS011;11926;48.120;11.562;2022-08-06T09:38:45;23.23;;;19.00;;
23498;SDS011;11926;48.120;11.562;2022-08-06T09:41:33;23.73;;;19.42;;
23498;SDS011;11926;48.120;11.562;2022-08-06T09:44:20;21.42;;;16.83;;
23498;SDS011;11926;48.120;11.562;2022-08-06T09:47:28;21.55;;;17.70;;
23498;SDS011;11926;48.120;11.562;2022-08-06T09:50:21;22.05;;;17.38;;
23498;SDS011;11926;48.120;11.562;2022-08-06T09:53:23;20.48;;;16.80;;
23498;SDS011;11926;48.120;11.562;2022-08-06T09:56:26;21.15;;;17.50;;
23498;SDS011;11926;48.120;11.562;2022-08-06T09:59:14;20.20;;;16.58;;
23498;SDS011;11926;48.120;11.562;2022-08-06T10:02:10;17.30;;;13.95;;
23498;SDS011;11926;48.120;11.562;2022-08-06T10:05:08;19.45;;;14.15;;
23498;SDS011;11926;48.120;11.562;2022-08-06T10:08:05;17.98;;;13.02;;
23498;SDS011;11926;48.120;11.562;2022-08-06T10:10:59;16.52;;;13.02;;
23498;SDS011;11926;48.120;11.562;2022-08-06T10:13:51;17.73;;;12.70;;
23498;SDS011;11926;48.120;11.562;2022-08-06T10:16:39;15.05;;;12.30;;
23498;SDS011;11926;48.120;11.562;2022-08-06T10:19:26;18.38;;;12.02;;
23498;SDS011;11926;48.120;11.562;2022-08-06T10:22:21;15.88;;;13.10;;
23498;SDS011;11926;48.120;11.562;2022-08-06T10:25:12;16.38;;;12.05;;
23498;SDS011;11926;48.120;11.562;2022-08-06T10:28:10;19.05;;;12.65;;
23498;SDS011;11926;48.120;11.562;2022-08-06T10:31:00;14.63;;;11.50;;
23498;SDS011;11926;48.120;11.562;2022-08-06T10:33:53;11.98;;;9.63;;
23498;SDS011;11926;48.120;11.562;2022-08-06T10:36:49;12.30;;;10.48;;
23498;SDS011;11926;48.120;11.562;2022-08-06T10:39:47;12.40;;;9.80;;
23498;SDS011;11926;48.120;11.562;2022-08-06T10:42:54;11.48;;;9.23;;
23498;SDS011;11926;48.120;11.562;2022-08-06T10:45:44;11.43;;;8.35;;
23498;SDS011;11926;48.120;11.562;2022-08-06T10:48:35;11.10;;;9.40;;
23498;SDS011;11926;48.120;11.562;2022-08-06T10:51:42;11.75;;;8.55;;
23498;SDS011;11926;48.120;11.562;2022-08-06T10:54:43;11.07;;;8.35;;
23498;SDS011;11926;48.120;11.562;2022-08-06T10:57:35;15.00;;;9.47;;
23498;SDS011;11926;48.120;11.562;2022-08-06T11:00:27;12.43;;;9.73;;
23498;SDS011;11926;48.120;11.562;2022-08-06T11:03:19;10.93;;;9.75;;
23498;SDS011;11926;48.120;11.562;2022-08-06T11:06:24;10.45;;;8.82;;
23498;SDS011;11926;48.120;11.562;2022-08-06T11:12:48;11.70;;;9.57;;
23498;SDS011;11926;48.120;11.562;2022-08-06T11:15:39;12.30;;;9.48;;
23498;SDS011;11926;48.120;11.562;2022-08-06T11:18:30;10.88;;;9.10;;
23498;SDS011;11926;48.120;11.562;2022-08-06T11:24:49;12.93;;;10.80;;
23498;SDS011;11926;48.120;11.562;2022-08-06T11:27:48;12.93;;;9.88;;
23498;SDS011;11926;48.120;11.562;2022-08-06T11:30:37;17.42;;;10.25;;
23498;SDS011;11926;48.120;11.562;2022-08-06T11:36:50;11.43;;;9.90;;
23498;SDS011;11926;48.120;11.562;2022-08-06T11:42:53;11.93;;;9.85;;
23498;SDS011;11926;48.120;11.562;2022-08-06T11:49:18;13.45;;;9.93;;
23498;SDS011;11926;48.120;11.562;2022-08-06T11:52:08;16.63;;;10.52;;
23498;SDS011;11926;48.120;11.562;2022-08-06T11:54:59;13.93;;;10.00;;
23498;SDS011;11926;48.120;11.562;2022-08-06T12:10:23;17.45;;;12.77;;
23498;SDS011;11926;48.120;11.562;2022-08-06T12:16:46;17.38;;;13.85;;
23498;SDS011;11926;48.120;11.562;2022-08-06T12:19:42;15.27;;;13.68;;
23498;SDS011;11926;48.120;11.562;2022-08-06T12:22:47;18.63;;;14.52;;
23498;SDS011;11926;48.120;11.562;2022-08-06T12:25:40;18.50;;;14.13;;
23498;SDS011;11926;48.120;11.562;2022-08-06T12:28:30;17.50;;;12.82;;
23498;SDS011;11926;48.120;11.562;2022-08-06T12:31:29;17.13;;;13.63;;
23498;SDS011;11926;48.120;11.562;2022-08-06T12:34:23;16.45;;;13.18;;
23498;SDS011;11926;48.120;11.562;2022-08-06T12:37:12;15.38;;;13.43;;
23498;SDS011;11926;48.120;11.562;2022-08-06T12:40:01;18.25;;;13.82;;
23498;SDS011;11926;48.120;11.562;2022-08-06T12:43:09;14.20;;;11.67;;
23498;SDS011;11926;48.120;11.562;2022-08-06T12:46:00;16.13;;;11.70;;
23498;SDS011;11926;48.120;11.562;2022-08-06T12:49:03;16.15;;;12.48;;
23498;SDS011;11926;48.120;11.562;2022-08-06T12:51:50;15.52;;;12.02;;
23498;SDS011;11926;48.120;11.562;2022-08-06T12:54:39;14.80;;;11.40;;
23498;SDS011;11926;48.120;11.562;2022-08-06T12:57:26;17.20;;;12.52;;
23498;SDS011;11926;48.120;11.562;2022-08-06T13:00:37;13.82;;;10.48;;
23498;SDS011;11926;48.120;11.562;2022-08-06T13:03:28;12.63;;;9.82;;
23498;SDS011;11926;48.120;11.562;2022-08-06T13:06:18;12.43;;;9.02;;
23498;SDS011;11926;48.120;11.562;2022-08-06T13:09:27;12.27;;;9.05;;
23498;SDS011;11926;48.120;11.562;2022-08-06T13:12:20;11.38;;;9.27;;
23498;SDS011;11926;48.120;11.562;2022-08-06T13:15:28;14.88;;;9.98;;
23498;SDS011;11926;48.120;11.562;2022-08-06T13:18:34;13.82;;;10.23;;
23498;SDS011;11926;48.120;11.562;2022-08-06T13:21:33;12.88;;;10.13;;
23498;SDS011;11926;48.120;11.562;2022-08-06T13:24:41;11.82;;;9.65;;
23498;SDS011;11926;48.120;11.562;2022-08-06T13:27:48;11.35;;;9.40;;
23498;SDS011;11926;48.120;11.562;2022-08-06T13:30:40;11.88;;;9.40;;
23498;SDS011;11926;48.120;11.562;2022-08-06T13:33:32;13.40;;;10.15;;
23498;SDS011;11926;48.120;11.562;2022-08-06T13:36:43;12.85;;;9.23;;
23498;SDS011;11926;48.120;11.562;2022-08-06T13:39:48;14.70;;;10.50;;
23498;SDS011;11926;48.120;11.562;2022-08-06T13:42:47;13.13;;;9.95;;
23498;SDS011;11926;48.120;11.562;2022-08-06T13:45:36;11.88;;;9.43;;
23498;SDS011;11926;48.120;11.562;2022-08-06T13:48:44;11.55;;;9.10;;
23498;SDS011;11926;48.120;11.562;2022-08-06T13:51:33;11.35;;;9.35;;
23498;SDS011;11926;48.120;11.562;2022-08-06T13:54:35;10.00;;;8.48;;
23498;SDS011;11926;48.120;11.562;2022-08-06T13:57:27;11.15;;;8.95;;
23498;SDS011;11926;48.120;11.562;2022-08-06T14:00:28;11.05;;;9.00;;
23498;SDS011;11926;48.120;11.562;2022-08-06T14:03:22;10.88;;;9.00;;
23498;SDS011;11926;48.120;11.562;2022-08-06T14:06:10;10.60;;;8.13;;
23498;SDS011;11926;48.120;11.562;2022-08-06T14:09:01;10.80;;;7.68;;
23498;SDS011;11926;48.120;11.562;2022-08-06T14:12:06;10.57;;;7.78;;
23498;SDS011;11926;48.120;11.562;2022-08-06T14:14:56;9.93;;;7.90;;
23498;SDS011;11926;48.120;11.562;2022-08-06T14:17:43;10.07;;;7.63;;
23498;SDS011;11926;48.120;11.562;2022-08-06T14:20:31;11.18;;;7.78;;
23498;SDS011;11926;48.120;11.562;2022-08-06T14:23:18;9.65;;;7.90;;
23498;SDS011;11926;48.120;11.562;2022-08-06T14:26:07;10.88;;;7.50;;
23498;SDS011;11926;48.120;11.562;2022-08-06T14:28:58;9.93;;;7.47;;
23498;SDS011;11926;48.120;11.562;2022-08-06T14:32:06;7.88;;;6.90;;
23498;SDS011;11926;48.120;11.562;2022-08-06T14:34:55;11.50;;;7.93;;
23498;SDS011;11926;48.120;11.562;2022-08-06T14:37:49;11.23;;;7.20;;
23498;SDS011;11926;48.120;11.562;2022-08-06T14:40:40;9.30;;;7.07;;
23498;SDS011;11926;48.120;11.562;2022-08-06T14:43:47;8.23;;;6.85;;
23498;SDS011;11926;48.120;11.562;2022-08-06T14:46:53;9.18;;;7.13;;
23498;SDS011;11926;48.120;11.562;2022-08-06T14:49:43;9.27;;;7.13;;
23498;SDS011;11926;48.120;11.562;2022-08-06T14:52:36;7.90;;;7.07;;
23498;SDS011;11926;48.120;11.562;2022-08-06T14:55:22;8.10;;;6.60;;
23498;SDS011;11926;48.120;11.562;2022-08-06T14:58:09;8.68;;;6.50;;
23498;SDS011;11926;48.120;11.562;2022-08-06T15:01:00;8.63;;;6.25;;
23498;SDS011;11926;48.120;11.562;2022-08-06T15:04:00;9.25;;;6.30;;
23498;SDS011;11926;48.120;11.562;2022-08-06T15:07:09;7.65;;;6.00;;
23498;SDS011;11926;48.120;11.562;2022-08-06T15:10:10;8.73;;;5.47;;
23498;SDS011;11926;48.120;11.562;2022-08-06T15:13:14;6.85;;;5.47;;
23498;SDS011;11926;48.120;11.562;2022-08-06T15:16:04;8.30;;;5.35;;
23498;SDS011;11926;48.120;11.562;2022-08-06T15:19:13;7.80;;;5.50;;
23498;SDS011;11926;48.120;11.562;2022-08-06T15:22:22;7.80;;;5.05;;
23498;SDS011;11926;48.120;11.562;2022-08-06T15:25:23;8.20;;;5.30;;
23498;SDS011;11926;48.120;11.562;2022-08-06T15:31:43;6.45;;;5.40;;
23498;SDS011;11926;48.120;11.562;2022-08-06T15:34:33;9.02;;;5.30;;
23498;SDS011;11926;48.120;11.562;2022-08-06T15:37:28;8.85;;;5.53;;
23498;SDS011;11926;48.120;11.562;2022-08-06T15:40:35;6.20;;;4.93;;
23498;SDS011;11926;48.120;11.562;2022-08-06T15:43:27;9.13;;;5.93;;
23498;SDS011;11926;48.120;11.562;2022-08-06T15:46:29;8.35;;;5.57;;
23498;SDS011;11926;48.120;11.562;2022-08-06T15:49:18;7.75;;;5.60;;
23498;SDS011;11926;48.120;11.562;2022-08-06T15:52:26;7.15;;;5.60;;
23498;SDS011;11926;48.120;11.562;2022-08-06T15:55:16;6.40;;;5.00;;
23498;SDS011;11926;48.120;11.562;2022-08-06T15:58:04;8.07;;;5.80;;
23498;SDS011;11926;48.120;11.562;2022-08-06T16:00:54;9.82;;;5.93;;
23498;SDS011;11926;48.120;11.562;2022-08-06T16:03:50;7.53;;;5.00;;
23498;SDS011;11926;48.120;11.562;2022-08-06T16:06:42;7.43;;;4.85;;
23498;SDS011;11926;48.120;11.562;2022-08-06T16:09:33;7.65;;;5.72;;
23498;SDS011;11926;48.120;11.562;2022-08-06T16:12:42;10.18;;;5.40;;
23498;SDS011;11926;48.120;11.562;2022-08-06T16:15:30;7.13;;;5.55;;
23498;SDS011;11926;48.120;11.562;2022-08-06T16:18:21;7.50;;;5.57;;
23498;SDS011;11926;48.120;11.562;2022-08-06T16:21:16;7.75;;;6.03;;
23498;SDS011;11926;48.120;11.562;2022-08-06T16:24:03;8.18;;;5.95;;
23498;SDS011;11926;48.120;11.562;2022-08-06T16:26:55;7.53;;;5.82;;
23498;SDS011;11926;48.120;11.562;2022-08-06T16:29:42;6.18;;;4.78;;
23498;SDS011;11926;48.120;11.562;2022-08-06T16:32:33;7.00;;;4.85;;
23498;SDS011;11926;48.120;11.562;2022-08-06T16:35:21;7.25;;;5.13;;
23498;SDS011;11926;48.120;11.562;2022-08-06T16:38:09;6.50;;;5.25;;
23498;SDS011;11926;48.120;11.562;2022-08-06T16:41:02;7.13;;;4.88;;
23498;SDS011;11926;48.120;11.562;2022-08-06T16:43:50;8.20;;;5.35;;
23498;SDS011;11926;48.120;11.562;2022-08-06T16:46:38;7.88;;;5.50;;
23498;SDS011;11926;48.120;11.562;2022-08-06T16:49:27;6.60;;;5.32;;
23498;SDS011;11926;48.120;11.562;2022-08-06T16:52:34;8.15;;;5.25;;
23498;SDS011;11926;48.120;11.562;2022-08-06T16:55:42;6.30;;;5.15;;
23498;SDS011;11926;48.120;11.562;2022-08-06T16:58:33;7.75;;;5.75;;
23498;SDS011;11926;48.120;11.562;2022-08-06T17:01:35;7.78;;;5.70;;
23498;SDS011;11926;48.120;11.562;2022-08-06T17:04:44;10.93;;;5.57;;
23498;SDS011;11926;48.120;11.562;2022-08-06T17:07:33;9.57;;;6.18;;
23498;SDS011;11926;48.120;11.562;2022-08-06T17:10:26;7.68;;;5.90;;
23498;SDS011;11926;48.120;11.562;2022-08-06T17:13:23;8.10;;;6.03;;
23498;SDS011;11926;48.120;11.562;2022-08-06T17:16:27;9.02;;;6.13;;
23498;SDS011;11926;48.120;11.562;2022-08-06T17:19:16;9.10;;;5.32;;
23498;SDS011;11926;48.120;11.562;2022-08-06T17:22:03;8.50;;;5.75;;
23498;SDS011;11926;48.120;11.562;2022-08-06T17:24:51;7.68;;;6.00;;
23498;SDS011;11926;48.120;11.562;2022-08-06T17:27:42;7.45;;;5.97;;
23498;SDS011;11926;48.120;11.562;2022-08-06T17:30:43;8.88;;;5.60;;
23498;SDS011;11926;48.120;11.562;2022-08-06T17:33:36;9.05;;;5.25;;
23498;SDS011;11926;48.120;11.562;2022-08-06T17:36:26;11.48;;;6.15;;
23498;SDS011;11926;48.120;11.562;2022-08-06T17:39:34;10.13;;;5.97;;
23498;SDS011;11926;48.120;11.562;2022-08-06T17:42:24;9.23;;;5.53;;
23498;SDS011;11926;48.120;11.562;2022-08-06T17:45:11;7.85;;;5.80;;
23498;SDS011;11926;48.120;11.562;2022-08-06T17:47:59;10.02;;;6.03;;
23498;SDS011;11926;48.120;11.562;2022-08-06T17:50:47;9.07;;;6.13;;
23498;SDS011;11926;48.120;11.562;2022-08-06T17:53:38;6.72;;;5.88;;
23498;SDS011;11926;48.120;11.562;2022-08-06T17:56:38;8.35;;;5.82;;
23498;SDS011;11926;48.120;11.562;2022-08-06T17:59:25;11.32;;;6.50;;
23498;SDS011;11926;48.120;11.562;2022-08-06T18:02:15;8.95;;;6.20;;
23498;SDS011;11926;48.120;11.562;2022-08-06T18:05:10;8.25;;;6.32;;